Nashville, Tennessee
Traffic Map
Current Weather Conditions
Nashville, Tennessee
Broken Clouds Light Rain
Broken Clouds
72°
Feels Like: 72°
Wind Chill: 72° Ceiling: 7000
Heat Index: 72° Visibility: 8mi
Dew Point: 69° Wind: 0mph
Humidity: 91% Direction: ° ()
Pressure: 29.99in Gusts: 0mph
Raw Report DataKBNA 022353Z 00000KT 8SM -RA FEW033 BKN070 BKN110 BKN250 22/21 A2999 RMK AO2 TSB10E48RAB26 SLP149 TS DSPTD P0007 60013 T02220206 10333 20222 53017
Traffic Incident Summary
Active as of:
Severity:
Category:
InformationThere was an issue retrieving the traffic information for this location. Please try a different location or try again shortly.
Advertisements
Track Severe Weather on mobile